Time;durP1;ratioP1;P1;durP2;ratioP2;P2;SDS_P1;SDS_P2;PMS_P1;PMS_P2;Temp;Humidity;BMP_temperature;BMP_pressure;BME280_temperature;BME280_humidity;BME280_pressure;Samples;Min_cycle;Max_cycle;Signal;HPM_P1;HPM_P2
2021/12/30 00:02:10;;;;;;;;;87.75;75.00;;;;;8.62;51.35;98377.78;6213160;28;97905;-66
2021/12/30 00:05:15;;;;;;;;;86.20;73.00;;;;;8.67;51.36;98391.38;6208523;28;97229;-69
2021/12/30 00:08:18;;;;;;;;;84.25;72.75;;;;;8.67;51.16;98399.44;6210134;28;97030;-71
2021/12/30 00:11:22;;;;;;;;;91.75;77.50;;;;;8.66;50.94;98392.44;6208306;28;97444;-68
2021/12/30 00:14:27;;;;;;;;;94.40;78.00;;;;;8.63;50.90;98387.50;6210423;28;96662;-66
2021/12/30 00:17:30;;;;;;;;;90.60;77.00;;;;;8.64;51.18;98393.72;6210014;28;98073;-68
2021/12/30 00:20:33;;;;;;;;;91.00;76.60;;;;;8.38;51.25;98367.91;6212340;28;96688;-70
2021/12/30 00:23:37;;;;;;;;;95.25;81.50;;;;;8.57;51.30;98396.44;6212244;28;96888;-66
2021/12/30 00:26:40;;;;;;;;;91.50;77.00;;;;;8.56;51.43;98402.03;6206457;28;97228;-67
2021/12/30 00:29:44;;;;;;;;;97.20;77.20;;;;;8.56;51.45;98410.09;6212098;28;97454;-69
2021/12/30 00:32:48;;;;;;;;;92.00;76.80;;;;;8.52;51.52;98409.72;6212322;28;98115;-68
2021/12/30 00:35:51;;;;;;;;;92.00;79.50;;;;;8.54;51.67;98407.66;6204365;28;97315;-69
2021/12/30 00:38:55;;;;;;;;;101.20;92.20;;;;;8.37;51.26;98400.34;6209700;28;98370;-71
2021/12/30 00:41:58;;;;;;;;;112.00;95.00;;;;;8.51;51.10;98428.72;6209989;28;97640;-67
2021/12/30 00:45:04;;;;;;;;;116.80;98.80;;;;;8.34;51.23;98406.97;6212576;28;97817;-66
2021/12/30 00:48:08;;;;;;;;;112.20;92.60;;;;;8.42;51.42;98432.75;6213795;28;96415;-66
2021/12/30 00:51:13;;;;;;;;;109.40;92.40;;;;;8.43;51.68;98431.69;6212953;28;97306;-66
2021/12/30 00:54:16;;;;;;;;;108.60;91.00;;;;;8.47;51.61;98430.22;6208201;28;97366;-70
2021/12/30 00:57:20;;;;;;;;;106.60;89.40;;;;;8.43;51.70;98431.69;6212114;28;97897;-69
2021/12/30 01:00:25;;;;;;;;;103.80;88.80;;;;;8.50;51.64;98427.13;6208459;28;99637;-69
2021/12/30 01:03:28;;;;;;;;;99.80;83.00;;;;;8.49;51.83;98431.66;6208759;28;97813;-67
2021/12/30 01:06:32;;;;;;;;;99.80;83.40;;;;;8.42;52.16;98430.88;6209660;28;96910;-68
2021/12/30 01:09:36;;;;;;;;;104.60;83.40;;;;;8.42;52.20;98438.09;6211339;28;97092;-67
2021/12/30 01:12:40;;;;;;;;;101.00;81.50;;;;;8.45;52.24;98433.16;6211551;28;98359;-67
2021/12/30 01:15:56;;;;;;;;;104.40;89.00;;;;;8.43;51.76;98419.09;6214015;28;97590;-66
2021/12/30 01:19:14;;;;;;;;;109.80;92.00;;;;;8.54;51.83;98423.75;6195292;28;97805;-66
2021/12/30 01:22:20;;;;;;;;;108.60;89.00;;;;;8.52;51.78;98435.75;6213448;28;96896;-68
2021/12/30 01:25:23;;;;;;;;;110.40;90.60;;;;;8.52;51.63;98430.38;6210797;28;97249;-70
2021/12/30 01:28:27;;;;;;;;;102.20;84.80;;;;;8.48;51.98;98426.50;6211533;28;97446;-66
2021/12/30 01:31:32;;;;;;;;;102.00;83.50;;;;;8.51;52.00;98428.72;6193374;28;96977;-66
2021/12/30 01:34:55;;;;;;;;;103.80;86.60;;;;;8.53;51.97;98423.97;6212269;28;96969;-69
2021/12/30 01:38:00;;;;;;;;;101.00;83.00;;;;;8.56;51.95;98429.72;6212336;28;97043;-66
2021/12/30 01:41:04;;;;;;;;;103.00;85.50;;;;;8.49;51.99;98439.72;6211976;28;96827;-70
2021/12/30 01:44:07;;;;;;;;;98.80;87.40;;;;;8.46;52.12;98437.44;6211340;28;97477;-70
2021/12/30 01:47:12;;;;;;;;;106.50;87.50;;;;;8.32;52.21;98433.22;6209897;28;96580;-66
2021/12/30 01:50:15;;;;;;;;;97.75;81.00;;;;;8.44;52.15;98449.47;6211472;28;97553;-69
2021/12/30 01:53:19;;;;;;;;;88.00;76.40;;;;;8.47;52.28;98447.16;6212466;28;98382;-71
2021/12/30 01:56:22;;;;;;;;;83.80;74.60;;;;;8.50;52.21;98452.09;6209948;28;99602;-68
2021/12/30 01:59:26;;;;;;;;;86.40;72.80;;;;;8.51;52.30;98447.53;6212092;28;97186;-68
2021/12/30 02:02:33;;;;;;;;;83.00;74.40;;;;;8.56;52.23;98439.66;6193162;28;97707;-70
2021/12/30 02:05:38;;;;;;;;;83.00;73.80;;;;;8.61;52.02;98431.75;6212042;28;97121;-68
2021/12/30 02:08:41;;;;;;;;;82.00;67.00;;;;;8.66;51.63;98437.28;6210490;28;97567;-72
2021/12/30 02:11:44;;;;;;;;;75.25;60.00;;;;;8.71;51.71;98432.06;6210983;28;98115;-68
2021/12/30 02:14:48;;;;;;;;;76.00;64.00;;;;;8.76;51.58;98421.47;6211813;28;96503;-68
2021/12/30 02:17:54;;;;;;;;;72.60;57.00;;;;;8.80;51.45;98422.69;6209927;28;98497;-67
2021/12/30 02:21:00;;;;;;;;;72.20;56.40;;;;;8.85;51.37;98419.31;6210545;28;98127;-67
2021/12/30 02:24:04;;;;;;;;;69.00;53.00;;;;;8.94;51.21;98423.41;6224345;28;96744;-71
2021/12/30 02:27:08;;;;;;;;;67.40;51.00;;;;;9.02;51.05;98421.22;6219897;28;96657;-70
2021/12/30 02:30:11;;;;;;;;;67.00;52.00;;;;;9.10;50.90;98418.25;6210806;28;96553;-68
2021/12/30 02:33:15;;;;;;;;;68.60;52.40;;;;;9.15;50.82;98420.25;6194251;28;97978;-69
2021/12/30 02:36:23;;;;;;;;;70.75;54.75;;;;;9.17;50.64;98428.94;6209852;28;97787;-67
2021/12/30 02:39:26;;;;;;;;;78.00;64.00;;;;;9.17;50.44;98434.31;6193078;28;98118;-67
2021/12/30 02:42:30;;;;;;;;;82.00;69.00;;;;;9.21;50.29;98443.56;6210960;28;97588;-67
2021/12/30 02:45:33;;;;;;;;;81.40;72.40;;;;;9.16;50.18;98450.66;6193728;28;96644;-68
2021/12/30 02:48:41;;;;;;;;;89.00;77.00;;;;;9.11;50.00;98457.53;6211081;28;97254;-69
2021/12/30 02:51:46;;;;;;;;;92.60;79.60;;;;;9.02;49.98;98448.13;6210030;28;99404;-71
2021/12/30 02:54:49;;;;;;;;;94.80;79.00;;;;;8.94;50.28;98448.38;6245316;27;96530;-67
2021/12/30 02:57:53;;;;;;;;;89.60;77.60;;;;;8.85;50.35;98451.59;6210624;28;97817;-68
2021/12/30 03:01:00;;;;;;;;;103.00;84.20;;;;;8.78;50.50;98454.34;6215144;28;96763;-67
2021/12/30 03:04:04;;;;;;;;;121.60;100.00;;;;;8.59;49.80;98440.06;6214628;28;97391;-68
2021/12/30 03:07:09;;;;;;;;;128.33;104.67;;;;;8.41;49.65;98431.91;6198332;28;97046;-67
2021/12/30 03:10:19;;;;;;;;;133.20;108.00;;;;;8.28;49.77;98429.31;6213083;28;98078;-68
2021/12/30 03:13:30;;;;;;;;;127.60;104.60;;;;;8.17;49.87;98422.78;6216260;28;96933;-67
2021/12/30 03:16:36;;;;;;;;;124.60;103.00;;;;;8.07;50.08;98417.06;6214797;28;97035;-67
2021/12/30 03:19:39;;;;;;;;;126.60;108.00;;;;;8.00;50.15;98431.56;6196004;28;97663;-69
2021/12/30 03:22:45;;;;;;;;;123.80;102.20;;;;;7.95;50.46;98424.16;6195183;28;98409;-71
2021/12/30 03:25:49;;;;;;;;;128.80;104.20;;;;;7.94;50.75;98427.88;6213914;28;97486;-69
2021/12/30 03:28:52;;;;;;;;;119.60;99.00;;;;;7.93;50.81;98426.22;6213457;28;97367;-68
2021/12/30 03:31:55;;;;;;;;;111.25;91.25;;;;;7.95;51.65;98442.13;6214132;28;97416;-69
2021/12/30 03:34:59;;;;;;;;;101.00;87.00;;;;;8.00;52.00;98456.56;6214213;28;96818;-69
2021/12/30 03:38:04;;;;;;;;;97.00;82.40;;;;;8.07;52.06;98465.38;6213606;28;99672;-69
2021/12/30 03:41:09;;;;;;;;;92.20;80.80;;;;;8.16;52.03;98474.81;6212354;28;97052;-69
2021/12/30 03:44:12;;;;;;;;;95.60;81.00;;;;;8.25;52.23;98483.47;6212775;28;97094;-67
2021/12/30 03:47:18;;;;;;;;;95.00;81.75;;;;;8.30;52.15;98490.91;6212385;28;96862;-69
2021/12/30 03:50:24;;;;;;;;;95.20;81.00;;;;;8.38;52.14;98493.31;6215999;28;97436;-70
2021/12/30 03:53:28;;;;;;;;;102.00;83.40;;;;;8.44;52.00;98495.13;6214865;28;97437;-69
2021/12/30 03:56:32;;;;;;;;;106.00;87.00;;;;;8.42;51.84;98498.03;6215111;28;96998;-67
2021/12/30 03:59:35;;;;;;;;;104.20;89.40;;;;;8.54;51.58;98514.28;6229520;28;98539;-69
2021/12/30 04:02:38;;;;;;;;;104.80;88.00;;;;;8.59;51.48;98515.28;6213054;28;97017;-71
2021/12/30 04:05:44;;;;;;;;;105.80;89.80;;;;;8.64;51.37;98522.69;6213158;28;97035;-71
2021/12/30 04:08:49;;;;;;;;;104.20;91.00;;;;;8.67;51.28;98522.25;6215559;28;97425;-68
2021/12/30 04:11:52;;;;;;;;;112.40;90.60;;;;;8.67;51.34;98503.44;6214192;28;97037;-67
2021/12/30 04:14:56;;;;;;;;;107.00;88.60;;;;;8.70;51.09;98513.72;6213715;28;97688;-71
2021/12/30 04:17:59;;;;;;;;;105.00;89.50;;;;;8.62;50.65;98512.16;6194719;28;98496;-71
2021/12/30 04:21:03;;;;;;;;;116.60;99.40;;;;;8.50;50.43;98507.72;6210766;28;97865;-68
2021/12/30 04:24:08;;;;;;;;;116.20;100.20;;;;;8.43;50.50;98505.06;6213958;28;98095;-67
2021/12/30 04:27:11;;;;;;;;;108.60;95.60;;;;;8.41;50.37;98509.81;6245929;27;97178;-69
2021/12/30 04:30:16;;;;;;;;;117.60;97.40;;;;;8.38;50.75;98504.88;6210963;28;96857;-67
2021/12/30 04:33:20;;;;;;;;;117.60;97.40;;;;;8.38;50.71;98512.94;6195623;28;97923;-71
2021/12/30 04:36:23;;;;;;;;;117.40;97.40;;;;;8.43;50.80;98513.13;6210314;28;96969;-71
2021/12/30 04:39:29;;;;;;;;;114.60;97.20;;;;;8.43;50.98;98518.50;6214829;28;97965;-69
2021/12/30 04:42:33;;;;;;;;;105.40;89.00;;;;;8.46;51.15;98538.72;6213319;28;97433;-67
2021/12/30 04:45:36;;;;;;;;;104.40;87.00;;;;;8.51;51.35;98537.03;6211409;28;96821;-69
2021/12/30 04:48:40;;;;;;;;;102.20;86.60;;;;;8.57;51.20;98535.34;6211146;28;99470;-69
2021/12/30 04:51:44;;;;;;;;;104.40;86.80;;;;;8.59;51.28;98534.09;6211416;28;97114;-72
2021/12/30 04:54:50;;;;;;;;;103.00;84.00;;;;;8.64;51.23;98549.56;6212344;28;96529;-67
2021/12/30 04:57:54;;;;;;;;;91.60;79.00;;;;;8.69;51.12;98539.81;6213775;28;97439;-70
2021/12/30 05:00:57;;;;;;;;;97.60;86.60;;;;;8.75;51.19;98537.28;6211330;28;98196;-72
2021/12/30 05:04:01;;;;;;;;;100.00;86.60;;;;;8.79;51.02;98552.75;6211732;28;97666;-71
2021/12/30 05:07:04;;;;;;;;;106.60;86.00;;;;;8.86;50.93;98560.75;6214244;28;96875;-67
2021/12/30 05:10:10;;;;;;;;;100.60;84.40;;;;;8.75;51.07;98564.97;6212877;28;97148;-71
2021/12/30 05:13:15;;;;;;;;;97.00;81.60;;;;;8.79;50.87;98560.81;6214297;28;96990;-71
2021/12/30 05:16:18;;;;;;;;;93.60;79.80;;;;;8.81;50.87;98574.84;6212944;28;96988;-67
2021/12/30 05:19:22;;;;;;;;;103.00;88.67;;;;;8.83;50.62;98577.34;6211767;28;96902;-68
2021/12/30 05:22:26;;;;;;;;;108.60;91.00;;;;;8.83;50.67;98569.25;6210733;28;98076;-68
2021/12/30 05:25:31;;;;;;;;;108.80;90.20;;;;;8.66;50.61;98558.22;6211952;28;98329;-67
2021/12/30 05:28:34;;;;;;;;;112.75;92.50;;;;;8.80;50.61;98583.94;6212805;28;96983;-68
2021/12/30 05:31:38;;;;;;;;;108.00;93.00;;;;;8.82;50.42;98579.19;6211204;28;96914;-69
2021/12/30 05:34:41;;;;;;;;;109.00;90.50;;;;;8.85;50.32;98578.75;6211516;28;96842;-68
2021/12/30 05:37:45;;;;;;;;;107.00;93.00;;;;;8.88;50.38;98574.81;6212002;28;96991;-70
2021/12/30 05:40:50;;;;;;;;;117.00;95.00;;;;;8.93;50.58;98570.44;6212276;28;96613;-67
2021/12/30 05:43:53;;;;;;;;;106.40;90.60;;;;;8.85;50.57;98554.56;6213810;28;97478;-70
2021/12/30 05:46:56;;;;;;;;;106.00;87.00;;;;;8.84;50.42;98549.41;6210961;28;100434;-67
2021/12/30 05:50:00;;;;;;;;;106.00;93.00;;;;;8.79;50.25;98549.25;6211426;28;96949;-70
2021/12/30 05:53:03;;;;;;;;;105.40;88.60;;;;;8.53;50.25;98540.31;6210024;28;99259;-67
2021/12/30 05:56:08;;;;;;;;;115.40;94.20;;;;;8.64;50.25;98573.75;6210771;28;98557;-70
2021/12/30 05:59:11;;;;;;;;;103.80;88.60;;;;;8.62;50.29;98587.38;6194481;28;98515;-68
2021/12/30 06:02:15;;;;;;;;;81.25;70.25;;;;;8.65;50.88;98581.56;6210541;28;97562;-70
2021/12/30 06:05:19;;;;;;;;;81.20;71.00;;;;;8.60;50.90;98559.91;6211277;28;97115;-70
2021/12/30 06:08:22;;;;;;;;;74.00;59.00;;;;;8.82;51.15;98564.94;6213327;28;97050;-67
2021/12/30 06:11:27;;;;;;;;;65.75;51.25;;;;;8.90;51.37;98564.66;6211224;28;96621;-67
2021/12/30 06:14:31;;;;;;;;;76.00;61.25;;;;;8.99;50.99;98569.53;6211366;28;96749;-69
2021/12/30 06:17:36;;;;;;;;;69.75;51.25;;;;;9.11;51.34;98575.03;6211875;28;97347;-66
2021/12/30 06:20:39;;;;;;;;;62.00;48.00;;;;;9.11;51.24;98566.97;6210299;28;96692;-66
2021/12/30 06:23:42;;;;;;;;;55.80;43.80;;;;;9.36;51.35;98589.28;6207841;28;98684;-65
2021/12/30 06:26:47;;;;;;;;;47.80;38.00;;;;;9.52;51.56;98599.50;6208336;28;98362;-67
2021/12/30 06:29:50;;;;;;;;;47.60;37.60;;;;;9.66;51.30;98597.50;6210572;28;96852;-67
2021/12/30 06:32:54;;;;;;;;;43.00;33.75;;;;;9.79;51.27;98599.22;6196300;28;99423;-68
2021/12/30 06:35:57;;;;;;;;;48.80;37.80;;;;;9.88;50.84;98593.31;6213032;28;97048;-67
2021/12/30 06:39:00;;;;;;;;;45.00;37.20;;;;;10.00;50.74;98604.16;6213844;28;97226;-68
2021/12/30 06:42:06;;;;;;;;;46.00;37.40;;;;;10.09;50.61;98621.66;6216405;28;96415;-66
2021/12/30 06:45:10;;;;;;;;;51.75;40.75;;;;;10.15;50.44;98609.19;6218503;28;97422;-67
2021/12/30 06:48:16;;;;;;;;;46.20;38.80;;;;;10.15;49.87;98617.25;6214342;28;96665;-62
2021/12/30 06:51:22;;;;;;;;;59.25;46.00;;;;;10.13;49.89;98622.84;6213265;28;98078;-64
2021/12/30 06:54:26;;;;;;;;;66.60;50.00;;;;;10.07;49.46;98631.84;6215783;28;97030;-66
2021/12/30 06:57:30;;;;;;;;;71.00;57.00;;;;;9.99;49.09;98627.56;6215320;28;97721;-67
2021/12/30 07:00:34;;;;;;;;;71.60;57.60;;;;;9.92;49.13;98634.88;6194206;28;98407;-67
2021/12/30 07:03:37;;;;;;;;;73.00;57.00;;;;;9.87;49.41;98642.03;6214282;28;97126;-68
2021/12/30 07:06:41;;;;;;;;;76.50;62.50;;;;;9.61;49.10;98612.66;6212060;28;97116;-66
2021/12/30 07:09:45;;;;;;;;;82.20;71.80;;;;;9.75;49.33;98643.78;6214480;28;96879;-65
2021/12/30 07:12:49;;;;;;;;;78.00;67.00;;;;;9.57;49.39;98610.44;6213771;28;97957;-64
2021/12/30 07:15:53;;;;;;;;;83.80;68.00;;;;;9.74;49.45;98629.50;6213686;28;98921;-65
2021/12/30 07:18:56;;;;;;;;;80.25;68.75;;;;;9.74;49.54;98631.38;6196989;28;96713;-64
2021/12/30 07:21:59;;;;;;;;;93.25;81.00;;;;;9.70;49.46;98627.47;6208945;28;98458;-64
2021/12/30 07:25:04;;;;;;;;;107.00;87.00;;;;;9.38;49.02;98595.25;6214355;28;97424;-63
2021/12/30 07:28:09;;;;;;;;;99.40;87.00;;;;;9.44;49.06;98623.16;6212370;28;96725;-66
2021/12/30 07:31:12;;;;;;;;;105.00;89.20;;;;;9.34;49.23;98618.28;6212806;28;97349;-66
2021/12/30 07:34:16;;;;;;;;;103.60;87.00;;;;;9.29;49.40;98625.34;6210361;28;98365;-64
2021/12/30 07:37:19;;;;;;;;;106.75;86.75;;;;;9.25;49.47;98622.28;6212242;28;97192;-64
2021/12/30 07:40:22;;;;;;;;;106.60;84.60;;;;;9.26;49.63;98623.13;6210626;28;97351;-69
2021/12/30 07:43:29;;;;;;;;;99.20;86.80;;;;;9.31;49.69;98634.88;6211876;28;96850;-66
2021/12/30 07:46:32;;;;;;;;;101.00;87.00;;;;;9.37;49.67;98644.75;6209063;28;97231;-66
2021/12/30 07:49:36;;;;;;;;;99.40;86.80;;;;;9.45;49.65;98651.72;6211630;28;97471;-66
2021/12/30 07:52:40;;;;;;;;;100.80;86.20;;;;;9.53;49.67;98651.44;6210584;28;97840;-67
2021/12/30 07:55:43;;;;;;;;;93.25;80.75;;;;;9.50;49.46;98633.88;6210215;28;98102;-69
2021/12/30 07:58:49;;;;;;;;;95.00;81.00;;;;;9.71;49.54;98653.34;6192416;28;99889;-68
2021/12/30 08:01:52;;;;;;;;;95.00;81.00;;;;;9.80;49.47;98665.47;6206472;28;97446;-68
2021/12/30 08:04:58;;;;;;;;;88.60;76.60;;;;;9.88;49.43;98666.00;6211090;28;97407;-66
2021/12/30 08:08:02;;;;;;;;;91.80;78.40;;;;;9.98;49.52;98670.88;6208885;28;97380;-66
2021/12/30 08:11:05;;;;;;;;;82.40;71.00;;;;;10.08;49.45;98670.38;6208361;28;98407;-67
2021/12/30 08:14:10;;;;;;;;;86.40;73.00;;;;;10.19;49.23;98675.88;6208786;28;97207;-66
2021/12/30 08:17:13;;;;;;;;;93.00;76.50;;;;;10.36;48.87;98676.91;6208187;28;97540;-68
2021/12/30 08:20:18;;;;;;;;;83.40;74.40;;;;;10.52;48.54;98666.56;6210053;28;96728;-68
2021/12/30 08:23:21;;;;;;;;;81.00;69.00;;;;;11.14;48.03;98666.09;6209464;28;97412;-69
2021/12/30 08:26:25;;;;;;;;;88.40;77.00;;;;;11.63;46.42;98666.81;6208793;28;98320;-69
2021/12/30 08:29:31;;;;;;;;;101.80;83.20;;;;;11.90;45.28;98651.81;6210301;28;97411;-68
2021/12/30 08:32:35;;;;;;;;;91.00;81.60;;;;;12.44;43.78;98650.53;6208394;28;97416;-66
2021/12/30 08:35:38;;;;;;;;;98.40;83.00;;;;;12.97;42.75;98652.91;6209931;28;96512;-70
2021/12/30 08:38:41;;;;;;;;;90.00;78.00;;;;;12.90;42.85;98649.53;6181594;28;97754;-67
2021/12/30 08:41:45;;;;;;;;;100.60;85.00;;;;;12.76;42.83;98640.06;6188694;28;97178;-68
2021/12/30 08:44:50;;;;;;;;;98.00;86.00;;;;;12.47;43.28;98620.31;6189085;28;97522;-67
2021/12/30 08:47:54;;;;;;;;;101.00;85.00;;;;;12.52;43.24;98646.63;6186079;28;96714;-69
2021/12/30 08:50:57;;;;;;;;;96.60;84.40;;;;;12.51;43.36;98658.53;6201909;28;98172;-67
2021/12/30 08:54:00;;;;;;;;;94.50;81.25;;;;;12.56;43.32;98655.88;6192197;28;97165;-66
2021/12/30 08:57:04;;;;;;;;;93.50;80.00;;;;;12.59;43.40;98650.84;6183736;28;96679;-69
2021/12/30 09:00:14;;;;;;;;;98.20;84.00;;;;;12.65;43.36;98642.84;6205464;28;98484;-67
2021/12/30 09:03:18;;;;;;;;;78.50;66.75;;;;;12.66;43.70;98647.19;6184756;28;98443;-68
2021/12/30 09:06:22;;;;;;;;;79.25;69.00;;;;;12.51;43.96;98636.88;6198988;28;96598;-66
2021/12/30 09:09:26;;;;;;;;;76.60;64.40;;;;;12.51;44.09;98648.50;6193884;28;97653;-68
2021/12/30 09:12:29;;;;;;;;;72.00;58.25;;;;;12.50;44.33;98651.47;6188299;28;97817;-68
2021/12/30 09:15:55;;;;;;;;;68.00;52.00;;;;;12.47;44.61;98663.56;6197788;28;97626;-69
2021/12/30 09:18:59;;;;;;;;;65.40;49.40;;;;;12.47;44.81;98663.56;6194353;28;97127;-69
2021/12/30 09:22:02;;;;;;;;;63.50;48.50;;;;;12.53;44.86;98669.91;6199273;28;96919;-71
2021/12/30 09:25:08;;;;;;;;;62.00;49.00;;;;;12.55;44.62;98670.50;6210205;28;97202;-71
2021/12/30 09:28:12;;;;;;;;;64.40;49.00;;;;;12.57;44.60;98669.19;6226492;28;97684;-69
2021/12/30 09:31:17;;;;;;;;;67.00;51.20;;;;;12.61;44.61;98671.44;6206837;28;97547;-67
2021/12/30 09:34:21;;;;;;;;;65.25;50.75;;;;;12.54;44.55;98666.16;6210996;28;97227;-71
2021/12/30 09:37:24;;;;;;;;;69.33;52.00;;;;;12.56;44.69;98670.22;6206648;28;97765;-71
2021/12/30 09:40:29;;;;;;;;;70.00;52.75;;;;;12.65;44.53;98667.19;6198495;28;96588;-70
2021/12/30 09:43:34;;;;;;;;;70.00;53.00;;;;;12.73;44.32;98661.38;6190829;28;97467;-70
2021/12/30 09:46:39;;;;;;;;;68.80;51.20;;;;;12.79;44.31;98663.94;6197463;28;97282;-70
2021/12/30 09:49:45;;;;;;;;;71.00;53.20;;;;;12.80;44.28;98667.47;6189846;28;98066;-69
2021/12/30 09:52:48;;;;;;;;;73.40;59.60;;;;;12.83;44.14;98665.09;6205401;28;97292;-71
2021/12/30 09:55:52;;;;;;;;;76.00;63.25;;;;;12.84;43.92;98652.41;6206432;28;96830;-67
2021/12/30 09:58:57;;;;;;;;;74.20;60.40;;;;;12.81;43.77;98653.69;6208827;28;97346;-69
2021/12/30 10:02:01;;;;;;;;;76.00;59.25;;;;;12.77;44.01;98649.81;6206974;28;97141;-70
2021/12/30 10:05:07;;;;;;;;;76.50;60.00;;;;;12.72;44.00;98649.72;6204429;28;97492;-68
2021/12/30 10:08:15;;;;;;;;;76.80;63.60;;;;;12.62;44.01;98627.88;6207212;28;97436;-70
2021/12/30 10:11:18;;;;;;;;;75.00;62.00;;;;;12.73;44.30;98651.38;6192927;28;97448;-69
2021/12/30 10:14:29;;;;;;;;;72.00;54.75;;;;;12.75;43.96;98654.69;6211147;28;97747;-71
2021/12/30 10:17:35;;;;;;;;;73.25;62.00;;;;;12.74;44.17;98653.03;6208591;28;97541;-68
2021/12/30 10:20:40;;;;;;;;;72.60;56.20;;;;;12.76;44.10;98659.00;6211169;28;98011;-69
2021/12/30 10:23:45;;;;;;;;;74.00;59.25;;;;;12.79;44.11;98658.53;6204140;28;97007;-68
2021/12/30 10:26:51;;;;;;;;;77.80;64.20;;;;;12.86;44.22;98663.78;6193166;28;97012;-68
2021/12/30 10:29:56;;;;;;;;;76.00;66.00;;;;;12.83;44.06;98669.69;6212833;28;97019;-68
2021/12/30 10:33:15;;;;;;;;;78.00;67.00;;;;;12.84;44.02;98674.88;6212977;28;97250;-68
2021/12/30 10:36:22;;;;;;;;;78.67;67.00;;;;;12.85;43.96;98657.53;6212647;28;96766;-68
2021/12/30 10:39:28;;;;;;;;;79.33;69.00;;;;;12.86;44.02;98663.78;6197048;28;98616;-67
2021/12/30 10:42:32;;;;;;;;;77.00;65.20;;;;;12.84;43.95;98661.34;6209642;28;97177;-68
2021/12/30 10:45:36;;;;;;;;;80.00;66.00;;;;;12.86;43.99;98663.78;6210998;28;97168;-72
2021/12/30 10:49:00;;;;;;;;;77.25;66.25;;;;;12.90;43.83;98659.56;6198309;28;97028;-68
2021/12/30 10:52:06;;;;;;;;;79.00;69.60;;;;;12.92;43.66;98650.13;6194926;28;97348;-69
2021/12/30 10:55:12;;;;;;;;;77.50;64.75;;;;;12.89;43.58;98647.09;6216876;27;97537;-69
2021/12/30 10:58:27;;;;;;;;;73.50;58.25;;;;;12.92;43.66;98654.72;6193703;28;97226;-72
2021/12/30 11:01:30;;;;;;;;;72.67;56.00;;;;;12.91;43.71;98662.00;6204695;28;97447;-71
2021/12/30 11:04:37;;;;;;;;;73.00;59.00;;;;;12.95;43.83;98654.25;6194336;28;98961;-72
2021/12/30 11:07:44;;;;;;;;;71.00;55.40;;;;;12.98;43.85;98640.22;6211262;28;97185;-69
2021/12/30 11:10:47;;;;;;;;;69.40;52.40;;;;;12.95;43.76;98644.22;6210567;28;97263;-69
2021/12/30 11:14:03;;;;;;;;;68.00;53.00;;;;;12.91;43.94;98653.88;6211655;28;97338;-70
2021/12/30 11:17:13;;;;;;;;;70.25;52.50;;;;;12.83;44.01;98657.00;6197278;28;96886;-68
2021/12/30 11:20:23;;;;;;;;;66.80;52.00;;;;;12.76;44.18;98664.41;6192259;28;97477;-67
2021/12/30 11:23:26;;;;;;;;;69.80;52.80;;;;;12.72;44.46;98682.19;6211023;28;97823;-67
2021/12/30 11:26:31;;;;;;;;;69.20;51.40;;;;;12.69;44.58;98679.16;6229358;27;97185;-68
2021/12/30 11:29:37;;;;;;;;;62.00;49.00;;;;;12.63;44.78;98680.09;6205812;28;98010;-66
2021/12/30 11:32:41;;;;;;;;;63.00;49.50;;;;;12.62;44.97;98665.75;6190353;28;96663;-66
2021/12/30 11:35:46;;;;;;;;;60.50;48.00;;;;;12.58;45.16;98657.31;6186191;28;98738;-66
2021/12/30 11:38:49;;;;;;;;;71.40;53.40;;;;;12.46;45.72;98663.81;6189117;28;97096;-67
2021/12/30 11:42:00;;;;;;;;;78.50;66.00;;;;;12.39;46.03;98657.72;6207857;28;97461;-67
2021/12/30 11:45:22;;;;;;;;;80.50;70.75;;;;;12.37;46.01;98667.94;6196863;28;97381;-67
2021/12/30 11:48:27;;;;;;;;;79.50;69.50;;;;;12.35;45.99;98670.06;6201887;28;97574;-66
2021/12/30 11:51:48;;;;;;;;;78.60;67.00;;;;;12.35;46.09;98680.88;6195125;28;97321;-67
2021/12/30 11:54:51;;;;;;;;;81.00;70.75;;;;;12.29;46.18;98674.53;6197610;28;97505;-66
2021/12/30 11:57:54;;;;;;;;;85.00;73.00;;;;;12.18;46.55;98677.25;6235176;27;97514;-68
2021/12/30 12:01:00;;;;;;;;;91.00;79.33;;;;;12.10;46.50;98673.88;6196101;28;97623;-69
2021/12/30 12:04:07;;;;;;;;;98.20;84.20;;;;;12.06;46.42;98682.69;6197035;28;97197;-68
2021/12/30 12:07:14;;;;;;;;;106.20;91.00;;;;;11.93;46.83;98672.09;6195957;28;100369;-67
2021/12/30 12:10:18;;;;;;;;;103.40;88.80;;;;;11.78;47.21;98658.28;6196771;28;97158;-70
2021/12/30 12:13:34;;;;;;;;;106.80;88.60;;;;;11.69;47.40;98661.28;6195797;28;96689;-66
2021/12/30 12:16:47;;;;;;;;;101.00;89.40;;;;;11.57;47.59;98659.63;6209046;28;97510;-68
2021/12/30 12:19:53;;;;;;;;;93.20;82.60;;;;;11.64;47.55;98669.25;6208194;28;97005;-67
2021/12/30 12:22:58;;;;;;;;;94.50;84.50;;;;;11.64;47.47;98663.03;6210933;28;98331;-64
2021/12/30 12:26:09;;;;;;;;;87.00;76.50;;;;;11.56;47.78;98683.09;6209398;28;97019;-67
2021/12/30 12:29:23;;;;;;;;;87.80;77.20;;;;;11.50;47.80;98667.00;6194953;28;97796;-65
2021/12/30 12:32:39;;;;;;;;;94.80;81.20;;;;;11.46;47.85;98665.84;6194416;28;96618;-69
2021/12/30 12:35:43;;;;;;;;;95.00;79.00;;;;;11.42;48.22;98672.75;6190132;28;96559;-68
2021/12/30 12:38:50;;;;;;;;;90.40;78.40;;;;;11.45;48.08;98678.50;6187270;28;97300;-66
2021/12/30 12:41:53;;;;;;;;;88.40;74.60;;;;;11.41;48.24;98671.94;6198410;28;97455;-66
2021/12/30 12:45:17;;;;;;;;;75.75;64.50;;;;;11.30;48.41;98684.34;6199476;28;96648;-65
2021/12/30 12:48:28;;;;;;;;;71.75;53.00;;;;;11.30;48.71;98678.94;6191896;28;96664;-67
2021/12/30 12:51:31;;;;;;;;;67.80;53.00;;;;;11.38;48.71;98668.88;6191478;28;97532;-67
2021/12/30 12:54:38;;;;;;;;;70.60;52.80;;;;;11.34;48.75;98665.81;6191572;28;97237;-68
2021/12/30 12:57:42;;;;;;;;;67.00;52.00;;;;;11.41;48.95;98674.63;6228769;27;97410;-65
2021/12/30 13:00:45;;;;;;;;;68.40;51.00;;;;;11.52;48.82;98665.72;6196014;28;97155;-67
2021/12/30 13:03:50;;;;;;;;;66.75;51.75;;;;;11.62;48.52;98674.09;6191816;28;97005;-69
2021/12/30 13:06:59;;;;;;;;;67.00;52.00;;;;;11.69;48.50;98676.66;6202734;28;97129;-66
2021/12/30 13:10:05;;;;;;;;;67.00;51.00;;;;;11.53;48.49;98644.97;6196962;28;96994;-71
2021/12/30 13:13:08;;;;;;;;;65.80;48.80;;;;;11.80;48.71;98689.38;6189506;28;98000;-67
2021/12/30 13:16:22;;;;;;;;;65.00;51.00;;;;;11.92;48.53;98694.78;6196793;28;98157;-68
2021/12/30 13:19:27;;;;;;;;;67.25;51.75;;;;;11.92;48.51;98702.91;6187283;28;97365;-66
2021/12/30 13:22:31;;;;;;;;;68.40;53.80;;;;;11.83;48.34;98694.31;6191167;28;96828;-66
2021/12/30 13:25:36;;;;;;;;;69.40;51.20;;;;;11.97;48.54;98703.81;6186705;28;97587;-66
2021/12/30 13:28:50;;;;;;;;;71.60;55.40;;;;;12.04;48.29;98717.22;6197694;28;97461;-68
2021/12/30 13:31:59;;;;;;;;;70.75;54.75;;;;;12.03;48.26;98713.69;6208199;28;97394;-66
2021/12/30 13:35:07;;;;;;;;;73.00;59.00;;;;;12.11;48.13;98704.41;6211569;28;98047;-66
2021/12/30 13:38:11;;;;;;;;;73.25;58.25;;;;;12.15;48.08;98714.53;6192691;28;96663;-67
2021/12/30 13:41:18;;;;;;;;;73.60;60.40;;;;;12.12;47.93;98709.56;6196832;28;97886;-69
2021/12/30 13:44:23;;;;;;;;;72.00;57.00;;;;;12.14;48.10;98720.97;6221806;28;97578;-66
2021/12/30 13:47:35;;;;;;;;;74.00;59.40;;;;;12.17;48.04;98721.56;6205511;28;97464;-67
2021/12/30 13:50:42;;;;;;;;;75.80;61.00;;;;;12.14;47.87;98729.09;6202964;28;97508;-68
2021/12/30 13:53:46;;;;;;;;;79.00;64.00;;;;;12.13;47.89;98738.25;6206470;28;97203;-65
2021/12/30 13:56:51;;;;;;;;;73.20;60.80;;;;;12.11;48.09;98743.06;6208122;28;96838;-66
2021/12/30 13:59:55;;;;;;;;;76.60;61.00;;;;;12.11;47.96;98739.53;6210960;28;96488;-66
2021/12/30 14:03:04;;;;;;;;;76.80;64.00;;;;;12.12;47.90;98739.28;6208599;28;98537;-66
2021/12/30 14:06:10;;;;;;;;;75.75;62.50;;;;;12.15;47.84;98738.00;6208935;28;99700;-66
2021/12/30 14:09:15;;;;;;;;;73.50;60.75;;;;;12.13;47.84;98745.53;6211656;28;96553;-67
2021/12/30 14:12:20;;;;;;;;;76.75;63.00;;;;;12.18;48.10;98739.41;6211052;28;96957;-67
2021/12/30 14:15:24;;;;;;;;;76.40;65.00;;;;;12.10;48.19;98732.50;6204222;28;96809;-65